createdAt,value
2022-08-25T00:01:30.415Z,46.60
2022-08-25T00:04:00.355Z,46.60
2022-08-25T00:06:29.570Z,46.45
2022-08-25T00:08:59.657Z,46.95
2022-08-25T00:11:31.234Z,46.89
2022-08-25T00:14:00.870Z,47.52
2022-08-25T00:16:29.996Z,47.53
2022-08-25T00:18:58.684Z,47.59
2022-08-25T00:21:26.853Z,48.21
2022-08-25T00:23:54.502Z,48.28
2022-08-25T00:26:23.564Z,48.92
2022-08-25T00:28:53.416Z,49.28
2022-08-25T00:31:25.234Z,49.30
2022-08-25T00:34:07.424Z,49.57
2022-08-25T00:36:35.932Z,49.73
2022-08-25T00:39:03.619Z,50.25
2022-08-25T00:41:31.253Z,50.15
2022-08-25T00:44:01.248Z,50.16
2022-08-25T00:46:30.345Z,50.37
2022-08-25T00:49:00.174Z,50.55
2022-08-25T00:51:31.705Z,50.34
2022-08-25T00:53:59.493Z,50.48
2022-08-25T00:56:28.257Z,50.38
2022-08-25T00:58:56.015Z,50.63
2022-08-25T01:01:25.000Z,50.66
2022-08-25T01:03:52.813Z,50.59
2022-08-25T01:06:20.471Z,50.71
2022-08-25T01:08:48.469Z,50.53
2022-08-25T01:11:16.272Z,50.52
2022-08-25T01:13:45.844Z,50.65
2022-08-25T01:16:14.516Z,50.49
2022-08-25T01:18:45.535Z,50.58
2022-08-25T01:21:15.344Z,50.73
2022-08-25T01:23:43.068Z,50.77
2022-08-25T01:26:13.471Z,51.16
2022-08-25T01:29:01.492Z,51.36
2022-08-25T01:31:30.070Z,51.20
2022-08-25T01:33:58.364Z,51.45
2022-08-25T01:36:28.279Z,50.86
2022-08-25T01:38:56.375Z,51.30
2022-08-25T01:41:31.492Z,51.17
2022-08-25T01:43:59.409Z,51.62
2022-08-25T01:46:27.144Z,51.30
2022-08-25T01:48:54.893Z,51.37
2022-08-25T01:51:24.820Z,51.64
2022-08-25T01:53:53.810Z,52.04
2022-08-25T01:56:21.522Z,51.71
2022-08-25T01:58:49.898Z,52.41
2022-08-25T02:01:18.997Z,51.88
2022-08-25T02:03:48.013Z,51.62
2022-08-25T02:06:16.279Z,52.37
2022-08-25T02:08:44.344Z,52.04
2022-08-25T02:11:13.603Z,52.11
2022-08-25T02:13:41.779Z,52.19
2022-08-25T02:16:10.855Z,52.34
2022-08-25T02:18:38.605Z,52.55
2022-08-25T02:21:06.333Z,52.88
2022-08-25T02:23:33.962Z,54.08
2022-08-25T02:26:02.072Z,53.76
2022-08-25T02:28:31.055Z,53.84
2022-08-25T02:31:01.583Z,54.23
2022-08-25T02:33:29.948Z,53.80
2022-08-25T02:35:58.459Z,54.10
2022-08-25T02:38:27.908Z,54.34
2022-08-25T02:40:55.681Z,54.31
2022-08-25T02:43:23.342Z,54.88
2022-08-25T02:45:52.312Z,54.42
2022-08-25T02:48:20.063Z,54.17
2022-08-25T02:50:48.268Z,54.61
2022-08-25T02:53:15.956Z,54.81
2022-08-25T02:55:43.566Z,55.26
2022-08-25T02:58:11.420Z,55.07
2022-08-25T03:00:39.024Z,55.56
2022-08-25T03:03:09.424Z,55.47
2022-08-25T03:05:37.057Z,55.24
2022-08-25T03:08:05.438Z,55.47
2022-08-25T03:10:33.164Z,55.34
2022-08-25T03:13:00.815Z,55.40
2022-08-25T03:15:30.569Z,55.63
2022-08-25T03:18:03.505Z,55.38
2022-08-25T03:20:33.347Z,55.33
2022-08-25T03:23:01.015Z,55.25
2022-08-25T03:25:46.355Z,55.23
2022-08-25T03:28:14.733Z,55.94
2022-08-25T03:30:42.727Z,55.55
2022-08-25T03:33:10.499Z,55.91
2022-08-25T03:35:40.614Z,55.49
2022-08-25T03:38:08.266Z,55.58
2022-08-25T03:40:36.020Z,55.76
2022-08-25T03:43:03.881Z,56.07
2022-08-25T03:45:31.630Z,56.11
2022-08-25T03:47:59.332Z,55.99
2022-08-25T03:50:27.310Z,55.99
2022-08-25T03:52:57.391Z,56.12
2022-08-25T03:55:26.123Z,56.44
2022-08-25T03:57:54.433Z,56.61
2022-08-25T04:00:23.532Z,57.36
2022-08-25T04:02:51.309Z,57.30
2022-08-25T04:05:20.262Z,57.27
2022-08-25T04:07:47.892Z,57.55
2022-08-25T04:10:16.843Z,57.82
2022-08-25T04:12:44.480Z,58.13
2022-08-25T04:15:12.375Z,58.47
2022-08-25T04:17:40.735Z,58.68
2022-08-25T04:20:09.391Z,59.26
2022-08-25T04:22:38.270Z,59.39
2022-08-25T04:25:06.945Z,59.48
2022-08-25T04:27:37.514Z,59.22
2022-08-25T04:30:06.283Z,59.58
2022-08-25T04:32:33.945Z,59.70
2022-08-25T04:35:01.566Z,59.95
2022-08-25T04:37:29.190Z,60.13
2022-08-25T04:39:56.828Z,60.72
2022-08-25T04:42:26.317Z,60.57
2022-08-25T04:44:55.822Z,60.64
2022-08-25T04:47:23.762Z,60.31
2022-08-25T04:49:51.426Z,60.78
2022-08-25T04:52:19.096Z,60.29
2022-08-25T04:54:47.587Z,61.12
2022-08-25T04:57:15.189Z,61.08
2022-08-25T04:59:42.806Z,60.70
2022-08-25T05:02:11.817Z,61.42
2022-08-25T05:04:39.887Z,61.17
2022-08-25T05:07:07.582Z,61.40
2022-08-25T05:09:35.502Z,61.40
2022-08-25T05:12:03.672Z,61.81
2022-08-25T05:14:31.554Z,61.84
2022-08-25T05:16:59.744Z,61.49
2022-08-25T05:19:28.732Z,61.65
2022-08-25T05:21:57.962Z,60.74
2022-08-25T05:24:26.180Z,60.53
2022-08-25T05:26:54.175Z,59.66
2022-08-25T05:29:22.089Z,58.79
2022-08-25T05:31:50.992Z,58.23
2022-08-25T05:34:19.501Z,57.14
2022-08-25T05:36:48.659Z,57.26
2022-08-25T05:39:16.339Z,56.51
2022-08-25T05:41:43.986Z,55.70
2022-08-25T05:44:12.686Z,55.26
2022-08-25T05:46:40.352Z,54.21
2022-08-25T05:49:08.045Z,53.94
2022-08-25T05:51:35.659Z,53.58
2022-08-25T05:54:05.343Z,53.38
2022-08-25T05:56:33.032Z,53.06
2022-08-25T05:59:00.715Z,52.43
2022-08-25T06:01:46.695Z,51.36
2022-08-25T06:04:14.859Z,50.51
2022-08-25T06:06:42.636Z,51.13
2022-08-25T06:09:11.749Z,51.27
2022-08-25T06:11:40.554Z,50.38
2022-08-25T06:14:08.734Z,49.93
2022-08-25T06:16:36.770Z,50.34
2022-08-25T06:19:04.705Z,50.20
2022-08-25T06:21:32.380Z,49.76
2022-08-25T06:23:59.964Z,49.14
2022-08-25T06:26:28.981Z,49.57
2022-08-25T06:28:56.612Z,49.72
2022-08-25T06:31:24.888Z,48.94
2022-08-25T06:33:52.899Z,48.94
2022-08-25T06:36:21.119Z,48.56
2022-08-25T06:38:49.115Z,47.24
2022-08-25T06:41:17.150Z,46.98
2022-08-25T06:43:49.795Z,46.80
2022-08-25T06:46:19.567Z,46.07
2022-08-25T06:48:47.654Z,44.59
2022-08-25T06:51:16.279Z,44.68
2022-08-25T06:53:44.431Z,44.74
2022-08-25T06:56:12.329Z,44.78
2022-08-25T06:58:40.229Z,44.59
2022-08-25T07:01:14.965Z,45.18
2022-08-25T07:03:47.681Z,45.01
2022-08-25T07:06:18.316Z,43.71
2022-08-25T07:08:46.638Z,44.81
2022-08-25T07:11:16.590Z,44.83
2022-08-25T07:13:45.415Z,45.54
2022-08-25T07:16:15.353Z,44.19
2022-08-25T07:18:43.140Z,43.20
2022-08-25T07:21:12.375Z,42.99
2022-08-25T07:23:40.330Z,43.27
2022-08-25T07:26:27.146Z,42.68
2022-08-25T07:28:58.514Z,42.53
2022-08-25T07:34:32.916Z,41.69
2022-08-25T07:37:04.369Z,42.33
2022-08-25T07:39:33.726Z,40.39
2022-08-25T07:42:01.547Z,40.46
2022-08-25T07:44:29.741Z,38.98
2022-08-25T07:46:59.190Z,39.55
2022-08-25T07:49:36.005Z,39.37
2022-08-25T07:52:07.588Z,38.66
2022-08-25T07:54:38.175Z,37.05
2022-08-25T07:57:07.675Z,37.19
2022-08-25T07:59:39.231Z,37.03
2022-08-25T08:02:09.170Z,36.55
2022-08-25T08:04:48.364Z,36.07
2022-08-25T08:07:17.442Z,35.33
2022-08-25T08:09:45.077Z,35.38
2022-08-25T08:12:15.216Z,36.10
2022-08-25T08:14:45.012Z,36.27
2022-08-25T08:17:15.227Z,36.11
2022-08-25T08:19:45.315Z,34.90
2022-08-25T08:22:15.556Z,34.58
2022-08-25T08:24:53.991Z,35.17
2022-08-25T08:27:23.942Z,34.89
2022-08-25T08:29:52.256Z,34.15
2022-08-25T08:32:25.198Z,34.44
2022-08-25T08:35:03.334Z,32.93
2022-08-25T08:37:31.393Z,33.48
2022-08-25T08:40:01.543Z,33.04
2022-08-25T08:42:47.190Z,32.32
2022-08-25T08:45:23.238Z,32.90
2022-08-25T08:48:00.164Z,32.80
2022-08-25T08:50:33.606Z,32.34
2022-08-25T08:53:04.985Z,32.58
2022-08-25T08:55:34.385Z,31.82
2022-08-25T08:58:03.931Z,30.48
2022-08-25T09:00:33.390Z,32.42
2022-08-25T09:03:06.353Z,31.80
2022-08-25T09:05:42.800Z,32.06
2022-08-25T09:08:13.777Z,31.86
2022-08-25T09:10:55.029Z,32.79
2022-08-25T09:13:29.042Z,32.43
2022-08-25T09:16:34.101Z,32.38
2022-08-25T09:19:11.821Z,31.53
2022-08-25T09:21:53.093Z,32.29
2022-08-25T09:24:27.723Z,31.51
2022-08-25T09:27:03.594Z,32.23
2022-08-25T09:29:47.235Z,32.50
2022-08-25T09:32:15.377Z,31.18
2022-08-25T09:34:53.583Z,30.62
2022-08-25T09:37:22.216Z,29.74
2022-08-25T09:39:49.852Z,29.67
2022-08-25T09:42:23.665Z,29.40
2022-08-25T09:44:51.982Z,29.41
2022-08-25T09:47:24.130Z,29.82
2022-08-25T09:49:58.308Z,29.66
2022-08-25T09:52:31.830Z,28.87
2022-08-25T09:55:00.845Z,28.06
2022-08-25T09:57:34.679Z,28.78
2022-08-25T10:00:16.085Z,28.20
2022-08-25T10:02:44.007Z,27.97
2022-08-25T10:05:23.266Z,28.89
2022-08-25T10:07:53.075Z,27.29
2022-08-25T10:10:24.764Z,27.62
2022-08-25T10:12:52.481Z,26.82
2022-08-25T10:15:29.714Z,26.07
2022-08-25T10:17:59.918Z,26.54
2022-08-25T10:20:35.224Z,26.44
2022-08-25T10:23:11.749Z,24.95
2022-08-25T10:25:42.758Z,24.98
2022-08-25T10:28:29.820Z,24.54
2022-08-25T10:31:04.394Z,22.98
2022-08-25T10:33:43.234Z,25.12
2022-08-25T10:36:16.995Z,25.06
2022-08-25T10:38:51.565Z,24.86
2022-08-25T10:41:26.798Z,25.90
2022-08-25T10:43:59.604Z,25.66
2022-08-25T10:48:19.899Z,25.31
2022-08-25T10:53:54.956Z,23.52
2022-08-25T10:56:25.730Z,24.01
2022-08-25T10:59:12.502Z,23.82
2022-08-25T11:01:45.088Z,24.15
2022-08-25T11:04:16.645Z,23.67
2022-08-25T11:06:53.117Z,22.13
2022-08-25T11:09:26.465Z,21.68
2022-08-25T11:11:56.530Z,23.23
2022-08-25T11:14:32.638Z,22.44
2022-08-25T11:17:05.870Z,23.08
2022-08-25T11:19:36.798Z,23.51
2022-08-25T11:22:08.435Z,22.57
2022-08-25T11:24:48.188Z,21.53
2022-08-25T11:27:18.234Z,20.86
2022-08-25T11:29:54.495Z,20.89
2022-08-25T11:32:23.137Z,21.24
2022-08-25T11:34:50.909Z,21.46
2022-08-25T11:37:23.053Z,21.04
2022-08-25T11:40:08.804Z,21.22
2022-08-25T11:42:45.481Z,21.56
2022-08-25T11:45:33.794Z,21.49
2022-08-25T11:48:10.437Z,20.46
2022-08-25T11:50:55.298Z,20.71
2022-08-25T11:53:28.114Z,17.25
2022-08-25T11:56:02.432Z,19.67
2022-08-25T11:58:35.485Z,19.17
2022-08-25T12:01:05.443Z,18.08
2022-08-25T12:03:48.000Z,20.02
2022-08-25T12:06:24.982Z,19.38
2022-08-25T12:08:57.555Z,18.53
2022-08-25T12:11:45.979Z,17.93
2022-08-25T12:14:18.489Z,19.24
2022-08-25T12:17:01.343Z,18.92
2022-08-25T12:19:31.008Z,17.48
2022-08-25T12:22:19.573Z,18.55
2022-08-25T12:24:51.911Z,18.73
2022-08-25T12:27:28.157Z,18.21
2022-08-25T12:30:00.240Z,18.10
2022-08-25T12:32:37.267Z,18.02
2022-08-25T12:35:14.597Z,17.56
2022-08-25T12:37:55.543Z,18.64
2022-08-25T12:40:25.669Z,17.92
2022-08-25T12:43:03.157Z,17.23
2022-08-25T12:45:35.722Z,19.18
2022-08-25T12:48:22.127Z,19.85
2022-08-25T12:50:57.751Z,20.52
2022-08-25T12:53:31.536Z,21.30
2022-08-25T12:56:02.602Z,19.75
2022-08-25T12:58:58.533Z,17.76
2022-08-25T13:01:36.198Z,18.56
2022-08-25T13:04:25.056Z,20.15
2022-08-25T13:07:04.192Z,19.84
2022-08-25T13:09:49.997Z,20.25
2022-08-25T13:12:20.068Z,18.21
2022-08-25T13:14:53.504Z,18.98
2022-08-25T13:17:26.797Z,19.05
2022-08-25T13:20:09.321Z,19.90
2022-08-25T13:22:38.174Z,18.80
2022-08-25T13:25:06.262Z,18.22
2022-08-25T13:27:35.649Z,19.04
2022-08-25T13:30:05.995Z,19.77
2022-08-25T13:32:38.903Z,19.20
2022-08-25T13:35:17.545Z,19.09
2022-08-25T13:37:46.913Z,17.75
2022-08-25T13:40:17.807Z,17.77
2022-08-25T13:42:52.966Z,17.28
2022-08-25T13:45:24.640Z,19.14
2022-08-25T13:47:55.830Z,18.55
2022-08-25T13:50:32.003Z,18.16
2022-08-25T13:53:01.098Z,18.69
2022-08-25T13:55:50.449Z,17.66
2022-08-25T13:58:24.210Z,18.68
2022-08-25T14:01:19.748Z,19.66
2022-08-25T14:03:52.584Z,19.89
2022-08-25T14:06:23.635Z,21.07
2022-08-25T14:09:05.896Z,20.45
2022-08-25T14:11:34.366Z,19.87
2022-08-25T14:14:03.104Z,19.31
2022-08-25T14:16:38.438Z,20.43
2022-08-25T14:19:19.879Z,20.07
2022-08-25T14:21:49.635Z,20.02
2022-08-25T14:24:22.559Z,20.46
2022-08-25T14:26:54.284Z,19.71
2022-08-25T14:29:22.588Z,19.29
2022-08-25T14:31:52.446Z,19.76
2022-08-25T14:34:22.056Z,20.09
2022-08-25T14:36:51.902Z,19.55
2022-08-25T14:39:20.298Z,19.84
2022-08-25T14:41:53.209Z,20.57
2022-08-25T14:44:21.929Z,19.81
2022-08-25T14:46:52.971Z,21.41
2022-08-25T14:49:24.947Z,21.25
2022-08-25T14:51:53.286Z,21.99
2022-08-25T14:54:23.587Z,21.75
2022-08-25T14:56:51.451Z,21.59
2022-08-25T14:59:19.264Z,21.31
2022-08-25T15:01:47.104Z,20.79
2022-08-25T15:04:20.521Z,20.68
2022-08-25T15:06:51.490Z,20.16
2022-08-25T15:09:18.664Z,20.39
2022-08-25T15:11:48.251Z,21.32
2022-08-25T15:14:19.389Z,21.90
2022-08-25T15:16:57.647Z,22.38
2022-08-25T15:19:28.359Z,22.00
2022-08-25T15:21:58.241Z,22.10
2022-08-25T15:24:27.562Z,21.75
2022-08-25T15:26:56.642Z,21.41
2022-08-25T15:29:27.233Z,21.13
2022-08-25T15:31:55.009Z,21.18
2022-08-25T15:34:22.693Z,21.11
2022-08-25T15:36:51.801Z,21.00
2022-08-25T15:39:19.820Z,21.98
2022-08-25T15:41:49.470Z,21.87
2022-08-25T15:44:17.328Z,21.00
2022-08-25T15:46:49.688Z,22.10
2022-08-25T15:49:20.598Z,22.36
2022-08-25T15:51:54.316Z,22.22
2022-08-25T15:54:22.674Z,21.51
2022-08-25T15:56:50.552Z,21.33
2022-08-25T15:59:19.672Z,21.58
2022-08-25T16:01:53.456Z,21.94
2022-08-25T16:04:21.849Z,21.57
2022-08-25T16:06:51.841Z,21.81
2022-08-25T16:09:22.919Z,21.24
2022-08-25T16:11:56.587Z,21.26
2022-08-25T16:14:25.728Z,21.51
2022-08-25T16:16:53.424Z,21.61
2022-08-25T16:19:26.283Z,21.70
2022-08-25T16:21:53.936Z,21.89
2022-08-25T16:24:22.920Z,21.72
2022-08-25T16:26:51.836Z,22.01
2022-08-25T16:29:20.148Z,22.44
2022-08-25T16:31:52.945Z,22.65
2022-08-25T16:34:22.179Z,22.88
2022-08-25T16:36:52.316Z,22.91
2022-08-25T16:39:20.604Z,22.76
2022-08-25T16:41:50.126Z,22.74
2022-08-25T16:44:19.692Z,22.70
2022-08-25T16:46:54.278Z,23.02
2022-08-25T16:49:24.363Z,22.89
2022-08-25T16:51:54.374Z,23.30
2022-08-25T16:54:43.325Z,24.22
2022-08-25T16:57:12.327Z,25.33
2022-08-25T16:59:39.993Z,25.26
2022-08-25T17:02:08.400Z,25.52
2022-08-25T17:04:36.009Z,25.56
2022-08-25T17:07:05.166Z,25.80
2022-08-25T17:09:32.795Z,26.26
2022-08-25T17:12:00.382Z,26.36
2022-08-25T17:14:29.397Z,26.45
2022-08-25T17:16:57.151Z,26.09
2022-08-25T17:19:25.858Z,26.82
2022-08-25T17:21:54.507Z,26.94
2022-08-25T17:24:29.421Z,26.92
2022-08-25T17:27:00.096Z,27.38
2022-08-25T17:29:30.671Z,26.88
2022-08-25T17:31:58.593Z,27.01
2022-08-25T17:34:27.031Z,27.45
2022-08-25T17:36:55.884Z,27.58
2022-08-25T17:39:23.743Z,27.35
2022-08-25T17:41:51.715Z,27.07
2022-08-25T17:44:19.599Z,27.53
2022-08-25T17:46:48.934Z,27.94
2022-08-25T17:49:17.021Z,28.04
2022-08-25T17:51:45.244Z,28.28
2022-08-25T17:54:13.080Z,28.34
2022-08-25T17:56:40.857Z,28.48
2022-08-25T17:59:08.742Z,28.75
2022-08-25T18:01:40.588Z,28.51
2022-08-25T18:04:17.303Z,28.65
2022-08-25T18:06:46.429Z,29.34
2022-08-25T18:09:14.412Z,29.41
2022-08-25T18:11:42.883Z,29.89
2022-08-25T18:14:11.219Z,30.49
2022-08-25T18:16:40.197Z,30.80
2022-08-25T18:19:09.561Z,31.08
2022-08-25T18:21:38.981Z,30.86
2022-08-25T18:24:06.987Z,31.33
2022-08-25T18:26:34.623Z,31.12
2022-08-25T18:29:02.471Z,30.95
2022-08-25T18:31:30.193Z,31.48
2022-08-25T18:33:58.078Z,31.71
2022-08-25T18:36:25.725Z,31.90
2022-08-25T18:39:13.464Z,32.05
2022-08-25T18:41:42.380Z,31.74
2022-08-25T18:44:10.939Z,32.19
2022-08-25T18:46:39.757Z,32.55
2022-08-25T18:49:07.485Z,33.21
2022-08-25T18:51:36.193Z,33.29
2022-08-25T18:54:05.748Z,33.05
2022-08-25T18:56:34.378Z,33.27
2022-08-25T18:59:03.127Z,33.33
2022-08-25T19:01:31.143Z,33.94
2022-08-25T19:03:58.892Z,34.22
2022-08-25T19:06:27.166Z,33.62
2022-08-25T19:08:54.824Z,33.80
2022-08-25T19:11:23.844Z,37.09
2022-08-25T19:13:52.045Z,40.14
2022-08-25T19:16:30.788Z,39.76
2022-08-25T19:18:58.589Z,39.40
2022-08-25T19:21:26.586Z,39.09
2022-08-25T19:23:54.164Z,38.73
2022-08-25T19:26:22.088Z,37.38
2022-08-25T19:28:52.648Z,37.29
2022-08-25T19:31:21.349Z,37.41
2022-08-25T19:33:49.303Z,37.18
2022-08-25T19:36:17.646Z,39.32
2022-08-25T19:38:49.236Z,40.66
2022-08-25T19:41:19.916Z,39.65
2022-08-25T19:43:50.486Z,40.83
2022-08-25T19:46:25.386Z,40.69
2022-08-25T19:48:53.046Z,40.63
2022-08-25T19:51:21.742Z,40.01
2022-08-25T19:53:54.316Z,38.99
2022-08-25T19:56:23.614Z,39.17
2022-08-25T19:58:51.618Z,38.63
2022-08-25T20:01:19.660Z,38.92
2022-08-25T20:03:48.797Z,39.49
2022-08-25T20:06:16.405Z,39.30
2022-08-25T20:08:44.066Z,39.72
2022-08-25T20:11:11.816Z,39.78
2022-08-25T20:13:39.457Z,39.95
2022-08-25T20:16:07.602Z,40.40
2022-08-25T20:18:36.277Z,40.55
2022-08-25T20:21:06.128Z,40.64
2022-08-25T20:23:51.116Z,40.73
2022-08-25T20:26:18.756Z,40.72
2022-08-25T20:28:46.447Z,41.27
2022-08-25T20:31:14.224Z,41.54
2022-08-25T20:33:41.992Z,41.74
2022-08-25T20:36:14.714Z,41.75
2022-08-25T20:38:44.619Z,42.30
2022-08-25T20:41:12.748Z,42.67
2022-08-25T20:43:40.624Z,42.73
2022-08-25T20:46:09.525Z,42.76
2022-08-25T20:48:38.275Z,42.85
2022-08-25T20:51:07.046Z,42.98
2022-08-25T20:53:37.410Z,43.39
2022-08-25T20:56:08.033Z,43.60
2022-08-25T20:58:36.796Z,44.34
2022-08-25T21:01:04.570Z,44.21
2022-08-25T21:03:37.227Z,44.38
2022-08-25T21:06:07.356Z,45.07
2022-08-25T21:08:36.625Z,45.62
2022-08-25T21:11:13.323Z,45.87
2022-08-25T21:13:41.838Z,45.81
2022-08-25T21:16:10.339Z,45.34
2022-08-25T21:18:39.139Z,45.91
2022-08-25T21:21:15.064Z,46.27
2022-08-25T21:23:48.529Z,46.44
2022-08-25T21:26:17.272Z,46.47
2022-08-25T21:28:47.519Z,46.73
2022-08-25T21:31:16.156Z,47.31
2022-08-25T21:33:45.489Z,47.59
2022-08-25T21:36:14.452Z,48.04
2022-08-25T21:38:42.556Z,47.66
2022-08-25T21:41:15.427Z,47.79
2022-08-25T21:43:44.868Z,47.68
2022-08-25T21:46:17.395Z,47.88
2022-08-25T21:48:46.575Z,48.16
2022-08-25T21:51:15.350Z,48.10
2022-08-25T21:53:43.316Z,48.22
2022-08-25T21:56:12.177Z,48.35
2022-08-25T21:58:41.176Z,48.84
2022-08-25T22:01:10.952Z,48.66
2022-08-25T22:03:40.942Z,48.86
2022-08-25T22:06:09.721Z,49.38
2022-08-25T22:08:41.302Z,49.38
2022-08-25T22:11:09.375Z,49.36
2022-08-25T22:13:38.169Z,49.29
2022-08-25T22:16:10.332Z,49.62
2022-08-25T22:18:38.009Z,49.42
2022-08-25T22:21:06.218Z,49.54
2022-08-25T22:23:44.055Z,50.08
2022-08-25T22:26:13.949Z,49.88
2022-08-25T22:28:42.732Z,50.44
2022-08-25T22:31:20.885Z,50.29
2022-08-25T22:33:49.153Z,50.67
2022-08-25T22:36:18.171Z,50.49
2022-08-25T22:38:46.789Z,50.20
2022-08-25T22:41:19.083Z,50.48
2022-08-25T22:43:49.856Z,50.51
2022-08-25T22:46:20.876Z,50.95
2022-08-25T22:48:50.346Z,50.51
2022-08-25T22:51:20.561Z,50.95
2022-08-25T22:53:48.963Z,50.35
2022-08-25T22:56:17.755Z,51.05
2022-08-25T22:58:51.727Z,50.56
2022-08-25T23:01:21.525Z,50.50
2022-08-25T23:03:49.240Z,50.52
2022-08-25T23:06:24.503Z,50.74
2022-08-25T23:08:53.915Z,50.73
2022-08-25T23:11:23.137Z,51.26
2022-08-25T23:13:51.434Z,51.11
2022-08-25T23:16:19.180Z,51.35
2022-08-25T23:18:48.253Z,51.38
2022-08-25T23:21:35.062Z,51.90
2022-08-25T23:24:03.137Z,51.78
2022-08-25T23:26:33.198Z,51.96
2022-08-25T23:29:03.264Z,51.78
2022-08-25T23:31:41.929Z,52.09
2022-08-25T23:34:11.324Z,52.83
2022-08-25T23:36:39.032Z,53.37
2022-08-25T23:39:06.974Z,54.30
2022-08-25T23:41:36.916Z,54.79
2022-08-25T23:44:05.400Z,54.51
2022-08-25T23:46:34.974Z,54.28
2022-08-25T23:49:03.284Z,54.50
2022-08-25T23:51:34.424Z,54.45
2022-08-25T23:54:07.021Z,54.69
2022-08-25T23:56:37.684Z,54.04
2022-08-25T23:59:13.088Z,54.14
